aviador You're here:

MMCV Decoded Metar

CIUDAD VICTORIA in MEXICO
Report Time2017-07-24 19:44:00
UTC Time2017-07-24 20:44:41
Flight Rules vfr VFR
Wind170° at 18 kt
W.Decomp.*RWY 15: 17.5 kt HW 4.4 kt RCW
W.Rank170° ranks 2
Current wind is above 170° avg. (9.5)
Visibility9999 m
Phenomena:N/A
Clouds:N/A
Expected CloudBase > 7,600 ft AGL from Temp-Dew spread
CeilingNone
Temp34°C (ISA +21)
Dew Point15°C (32% RH)
Heat Index33.6°C
AAT29.1°C
QNH1013 hPa
Density Alt3,343 ft
Elevation781 ft
Report Wrong Elevation
Raw Report
MMCV 241944Z 17018KT 7SM SKC 34/15 A2991 RMK E17018KT HZY=

Extra information for MMCV:More info

Metar Taf Metar & Taf Last 4 Metars F.Rules Stats Wind Profile Meteogram Temp Stats Airport Information Weather charts Add Link Nearby VenuesMetar ALERT Operation Metar Decoded Social comments